sensor_id;sensor_type;location;lat;lon;timestamp;P1;durP1;ratioP1;P2;durP2;ratioP2
14292;SDS011;62290;59.420;17.842;2023-04-24T00:01:05;1.33;;;0.77;;
14292;SDS011;62290;59.420;17.842;2023-04-24T00:03:34;0.80;;;0.70;;
14292;SDS011;62290;59.420;17.842;2023-04-24T00:06:04;1.90;;;0.80;;
14292;SDS011;62290;59.420;17.842;2023-04-24T00:08:33;0.68;;;0.60;;
14292;SDS011;62290;59.420;17.842;2023-04-24T00:11:01;0.80;;;0.70;;
14292;SDS011;62290;59.420;17.842;2023-04-24T00:13:29;1.60;;;0.95;;
14292;SDS011;62290;59.420;17.842;2023-04-24T00:15:57;0.82;;;0.60;;
14292;SDS011;62290;59.420;17.842;2023-04-24T00:18:25;2.03;;;0.82;;
14292;SDS011;62290;59.420;17.842;2023-04-24T00:20:53;0.75;;;0.60;;
14292;SDS011;62290;59.420;17.842;2023-04-24T00:23:23;2.40;;;0.70;;
14292;SDS011;62290;59.420;17.842;2023-04-24T00:25:51;3.08;;;0.80;;
14292;SDS011;62290;59.420;17.842;2023-04-24T00:28:19;1.02;;;0.68;;
14292;SDS011;62290;59.420;17.842;2023-04-24T00:30:47;0.73;;;0.50;;
14292;SDS011;62290;59.420;17.842;2023-04-24T00:33:15;0.93;;;0.60;;
14292;SDS011;62290;59.420;17.842;2023-04-24T00:35:43;0.85;;;0.75;;
14292;SDS011;62290;59.420;17.842;2023-04-24T00:38:11;2.42;;;1.02;;
14292;SDS011;62290;59.420;17.842;2023-04-24T00:40:42;0.93;;;0.70;;
14292;SDS011;62290;59.420;17.842;2023-04-24T00:43:10;1.35;;;0.82;;
14292;SDS011;62290;59.420;17.842;2023-04-24T00:45:38;1.40;;;0.50;;
14292;SDS011;62290;59.420;17.842;2023-04-24T00:48:07;0.85;;;0.60;;
14292;SDS011;62290;59.420;17.842;2023-04-24T00:50:35;0.60;;;0.43;;
14292;SDS011;62290;59.420;17.842;2023-04-24T00:53:03;1.02;;;0.60;;
14292;SDS011;62290;59.420;17.842;2023-04-24T00:55:32;0.63;;;0.50;;
14292;SDS011;62290;59.420;17.842;2023-04-24T00:58:01;0.40;;;0.40;;
14292;SDS011;62290;59.420;17.842;2023-04-24T01:00:29;0.47;;;0.47;;
14292;SDS011;62290;59.420;17.842;2023-04-24T01:02:59;9.00;;;0.75;;
14292;SDS011;62290;59.420;17.842;2023-04-24T01:05:29;1.50;;;0.60;;
14292;SDS011;62290;59.420;17.842;2023-04-24T01:07:57;0.60;;;0.60;;
14292;SDS011;62290;59.420;17.842;2023-04-24T01:10:26;0.68;;;0.50;;
14292;SDS011;62290;59.420;17.842;2023-04-24T01:12:56;2.78;;;0.68;;
14292;SDS011;62290;59.420;17.842;2023-04-24T01:15:26;2.25;;;0.60;;
14292;SDS011;62290;59.420;17.842;2023-04-24T01:17:54;1.45;;;0.60;;
14292;SDS011;62290;59.420;17.842;2023-04-24T01:20:23;1.63;;;0.80;;
14292;SDS011;62290;59.420;17.842;2023-04-24T01:22:55;1.45;;;0.90;;
14292;SDS011;62290;59.420;17.842;2023-04-24T01:25:24;2.35;;;0.85;;
14292;SDS011;62290;59.420;17.842;2023-04-24T01:27:56;1.15;;;0.65;;
14292;SDS011;62290;59.420;17.842;2023-04-24T01:30:24;2.58;;;0.70;;
14292;SDS011;62290;59.420;17.842;2023-04-24T01:32:52;1.83;;;0.80;;
14292;SDS011;62290;59.420;17.842;2023-04-24T01:35:21;1.63;;;0.80;;
14292;SDS011;62290;59.420;17.842;2023-04-24T01:37:49;1.70;;;0.63;;
14292;SDS011;62290;59.420;17.842;2023-04-24T01:40:18;1.73;;;0.82;;
14292;SDS011;62290;59.420;17.842;2023-04-24T01:42:46;2.28;;;0.80;;
14292;SDS011;62290;59.420;17.842;2023-04-24T01:45:15;1.45;;;0.73;;
14292;SDS011;62290;59.420;17.842;2023-04-24T01:47:43;2.00;;;0.75;;
14292;SDS011;62290;59.420;17.842;2023-04-24T01:50:12;1.20;;;0.77;;
14292;SDS011;62290;59.420;17.842;2023-04-24T01:52:41;1.48;;;0.70;;
14292;SDS011;62290;59.420;17.842;2023-04-24T01:55:09;1.33;;;0.65;;
14292;SDS011;62290;59.420;17.842;2023-04-24T01:57:39;2.28;;;0.80;;
14292;SDS011;62290;59.420;17.842;2023-04-24T02:00:08;1.63;;;0.77;;
14292;SDS011;62290;59.420;17.842;2023-04-24T02:02:40;3.35;;;0.77;;
14292;SDS011;62290;59.420;17.842;2023-04-24T02:05:13;1.85;;;0.82;;
14292;SDS011;62290;59.420;17.842;2023-04-24T02:07:41;1.35;;;0.80;;
14292;SDS011;62290;59.420;17.842;2023-04-24T02:10:09;0.75;;;0.68;;
14292;SDS011;62290;59.420;17.842;2023-04-24T02:12:42;1.00;;;0.70;;
14292;SDS011;62290;59.420;17.842;2023-04-24T02:15:11;1.90;;;0.90;;
14292;SDS011;62290;59.420;17.842;2023-04-24T02:17:39;1.27;;;0.80;;
14292;SDS011;62290;59.420;17.842;2023-04-24T02:20:07;1.20;;;0.80;;
14292;SDS011;62290;59.420;17.842;2023-04-24T02:22:37;1.70;;;1.05;;
14292;SDS011;62290;59.420;17.842;2023-04-24T02:25:05;1.48;;;0.80;;
14292;SDS011;62290;59.420;17.842;2023-04-24T02:27:34;1.80;;;1.38;;
14292;SDS011;62290;59.420;17.842;2023-04-24T02:30:07;1.92;;;1.13;;
14292;SDS011;62290;59.420;17.842;2023-04-24T02:32:35;2.05;;;1.35;;
14292;SDS011;62290;59.420;17.842;2023-04-24T02:35:05;1.95;;;1.45;;
14292;SDS011;62290;59.420;17.842;2023-04-24T02:37:34;3.00;;;1.23;;
14292;SDS011;62290;59.420;17.842;2023-04-24T02:40:02;2.75;;;1.42;;
14292;SDS011;62290;59.420;17.842;2023-04-24T02:42:32;2.45;;;1.40;;
14292;SDS011;62290;59.420;17.842;2023-04-24T02:45:00;2.53;;;1.45;;
14292;SDS011;62290;59.420;17.842;2023-04-24T02:47:29;3.05;;;1.63;;
14292;SDS011;62290;59.420;17.842;2023-04-24T02:49:59;4.30;;;2.05;;
14292;SDS011;62290;59.420;17.842;2023-04-24T02:52:27;8.70;;;2.30;;
14292;SDS011;62290;59.420;17.842;2023-04-24T02:54:55;4.75;;;2.63;;
14292;SDS011;62290;59.420;17.842;2023-04-24T02:57:23;4.22;;;2.10;;
14292;SDS011;62290;59.420;17.842;2023-04-24T02:59:51;7.53;;;2.75;;
14292;SDS011;62290;59.420;17.842;2023-04-24T03:02:19;4.35;;;3.00;;
14292;SDS011;62290;59.420;17.842;2023-04-24T03:04:49;5.72;;;2.53;;
14292;SDS011;62290;59.420;17.842;2023-04-24T03:07:19;3.25;;;2.45;;
14292;SDS011;62290;59.420;17.842;2023-04-24T03:09:47;3.70;;;2.13;;
14292;SDS011;62290;59.420;17.842;2023-04-24T03:12:15;4.07;;;2.13;;
14292;SDS011;62290;59.420;17.842;2023-04-24T03:14:44;3.15;;;1.33;;
14292;SDS011;62290;59.420;17.842;2023-04-24T03:17:12;3.20;;;1.95;;
14292;SDS011;62290;59.420;17.842;2023-04-24T03:19:40;3.13;;;1.77;;
14292;SDS011;62290;59.420;17.842;2023-04-24T03:22:11;3.88;;;1.70;;
14292;SDS011;62290;59.420;17.842;2023-04-24T03:24:40;3.70;;;1.90;;
14292;SDS011;62290;59.420;17.842;2023-04-24T03:27:08;2.47;;;1.70;;
14292;SDS011;62290;59.420;17.842;2023-04-24T03:29:54;2.70;;;1.60;;
14292;SDS011;62290;59.420;17.842;2023-04-24T03:32:35;3.05;;;1.73;;
14292;SDS011;62290;59.420;17.842;2023-04-24T03:35:03;4.28;;;1.60;;
14292;SDS011;62290;59.420;17.842;2023-04-24T03:37:34;5.20;;;1.80;;
14292;SDS011;62290;59.420;17.842;2023-04-24T03:40:28;5.80;;;1.63;;
14292;SDS011;62290;59.420;17.842;2023-04-24T03:42:57;4.82;;;1.60;;
14292;SDS011;62290;59.420;17.842;2023-04-24T03:45:25;3.42;;;1.60;;
14292;SDS011;62290;59.420;17.842;2023-04-24T03:47:53;3.38;;;1.60;;
14292;SDS011;62290;59.420;17.842;2023-04-24T03:50:21;5.38;;;1.58;;
14292;SDS011;62290;59.420;17.842;2023-04-24T03:52:51;5.32;;;1.50;;
14292;SDS011;62290;59.420;17.842;2023-04-24T03:55:31;2.38;;;1.60;;
14292;SDS011;62290;59.420;17.842;2023-04-24T03:57:59;1.95;;;1.30;;
14292;SDS011;62290;59.420;17.842;2023-04-24T04:00:27;3.88;;;1.50;;
14292;SDS011;62290;59.420;17.842;2023-04-24T04:03:19;2.85;;;1.50;;
14292;SDS011;62290;59.420;17.842;2023-04-24T04:05:48;2.75;;;1.67;;
14292;SDS011;62290;59.420;17.842;2023-04-24T04:08:18;3.67;;;1.63;;
14292;SDS011;62290;59.420;17.842;2023-04-24T04:10:47;4.95;;;1.95;;
14292;SDS011;62290;59.420;17.842;2023-04-24T04:13:15;2.78;;;1.52;;
14292;SDS011;62290;59.420;17.842;2023-04-24T04:15:43;2.70;;;1.70;;
14292;SDS011;62290;59.420;17.842;2023-04-24T04:18:12;2.97;;;1.92;;
14292;SDS011;62290;59.420;17.842;2023-04-24T04:20:40;3.40;;;1.90;;
14292;SDS011;62290;59.420;17.842;2023-04-24T04:23:10;2.03;;;1.50;;
14292;SDS011;62290;59.420;17.842;2023-04-24T04:26:02;2.38;;;1.77;;
14292;SDS011;62290;59.420;17.842;2023-04-24T04:28:57;4.53;;;1.75;;
14292;SDS011;62290;59.420;17.842;2023-04-24T04:31:25;4.05;;;1.98;;
14292;SDS011;62290;59.420;17.842;2023-04-24T04:33:55;2.28;;;1.60;;
14292;SDS011;62290;59.420;17.842;2023-04-24T04:36:23;3.20;;;1.70;;
14292;SDS011;62290;59.420;17.842;2023-04-24T04:39:00;4.20;;;1.88;;
14292;SDS011;62290;59.420;17.842;2023-04-24T04:41:46;3.35;;;1.50;;
14292;SDS011;62290;59.420;17.842;2023-04-24T04:44:17;3.00;;;1.42;;
14292;SDS011;62290;59.420;17.842;2023-04-24T04:46:45;2.70;;;1.50;;
14292;SDS011;62290;59.420;17.842;2023-04-24T04:49:22;2.58;;;1.55;;
14292;SDS011;62290;59.420;17.842;2023-04-24T04:51:51;2.83;;;1.73;;
14292;SDS011;62290;59.420;17.842;2023-04-24T04:54:20;2.63;;;1.38;;
14292;SDS011;62290;59.420;17.842;2023-04-24T04:56:50;2.45;;;1.70;;
14292;SDS011;62290;59.420;17.842;2023-04-24T04:59:19;3.05;;;1.80;;
14292;SDS011;62290;59.420;17.842;2023-04-24T05:01:50;6.88;;;1.67;;
14292;SDS011;62290;59.420;17.842;2023-04-24T05:04:19;2.70;;;1.70;;
14292;SDS011;62290;59.420;17.842;2023-04-24T05:06:50;2.65;;;1.67;;
14292;SDS011;62290;59.420;17.842;2023-04-24T05:09:20;4.32;;;1.58;;
14292;SDS011;62290;59.420;17.842;2023-04-24T05:11:56;2.80;;;1.67;;
14292;SDS011;62290;59.420;17.842;2023-04-24T05:14:25;2.22;;;1.65;;
14292;SDS011;62290;59.420;17.842;2023-04-24T05:16:54;4.65;;;1.90;;
14292;SDS011;62290;59.420;17.842;2023-04-24T05:19:24;3.30;;;1.45;;
14292;SDS011;62290;59.420;17.842;2023-04-24T05:21:53;4.00;;;2.00;;
14292;SDS011;62290;59.420;17.842;2023-04-24T05:24:21;2.88;;;1.60;;
14292;SDS011;62290;59.420;17.842;2023-04-24T05:27:26;4.25;;;1.77;;
14292;SDS011;62290;59.420;17.842;2023-04-24T05:29:54;3.53;;;1.70;;
14292;SDS011;62290;59.420;17.842;2023-04-24T05:32:22;4.05;;;1.65;;
14292;SDS011;62290;59.420;17.842;2023-04-24T05:34:51;4.93;;;2.00;;
14292;SDS011;62290;59.420;17.842;2023-04-24T05:37:19;2.95;;;1.65;;
14292;SDS011;62290;59.420;17.842;2023-04-24T05:39:47;1.80;;;1.40;;
14292;SDS011;62290;59.420;17.842;2023-04-24T05:42:15;2.72;;;1.63;;
14292;SDS011;62290;59.420;17.842;2023-04-24T05:44:44;4.75;;;1.70;;
14292;SDS011;62290;59.420;17.842;2023-04-24T05:47:12;2.50;;;1.75;;
14292;SDS011;62290;59.420;17.842;2023-04-24T05:49:41;2.92;;;2.10;;
14292;SDS011;62290;59.420;17.842;2023-04-24T05:52:09;2.30;;;1.83;;
14292;SDS011;62290;59.420;17.842;2023-04-24T05:54:39;2.90;;;2.08;;
14292;SDS011;62290;59.420;17.842;2023-04-24T05:57:09;4.72;;;1.80;;
14292;SDS011;62290;59.420;17.842;2023-04-24T05:59:49;5.55;;;1.77;;
14292;SDS011;62290;59.420;17.842;2023-04-24T06:02:19;3.20;;;2.05;;
14292;SDS011;62290;59.420;17.842;2023-04-24T06:04:47;3.28;;;1.92;;
14292;SDS011;62290;59.420;17.842;2023-04-24T06:07:16;5.65;;;2.08;;
14292;SDS011;62290;59.420;17.842;2023-04-24T06:09:45;2.67;;;1.98;;
14292;SDS011;62290;59.420;17.842;2023-04-24T06:12:13;3.75;;;2.38;;
14292;SDS011;62290;59.420;17.842;2023-04-24T06:14:52;2.08;;;1.58;;
14292;SDS011;62290;59.420;17.842;2023-04-24T06:17:35;2.08;;;1.52;;
14292;SDS011;62290;59.420;17.842;2023-04-24T06:20:04;3.67;;;1.80;;
14292;SDS011;62290;59.420;17.842;2023-04-24T06:22:34;1.75;;;1.30;;
14292;SDS011;62290;59.420;17.842;2023-04-24T06:25:02;1.92;;;1.40;;
14292;SDS011;62290;59.420;17.842;2023-04-24T06:27:32;1.83;;;1.38;;
14292;SDS011;62290;59.420;17.842;2023-04-24T06:30:02;5.63;;;1.52;;
14292;SDS011;62290;59.420;17.842;2023-04-24T06:32:32;3.45;;;2.13;;
14292;SDS011;62290;59.420;17.842;2023-04-24T06:35:00;2.90;;;1.70;;
14292;SDS011;62290;59.420;17.842;2023-04-24T06:37:28;2.67;;;1.50;;
14292;SDS011;62290;59.420;17.842;2023-04-24T06:39:56;2.17;;;1.50;;
14292;SDS011;62290;59.420;17.842;2023-04-24T06:42:24;6.43;;;2.00;;
14292;SDS011;62290;59.420;17.842;2023-04-24T06:44:54;2.42;;;1.45;;
14292;SDS011;62290;59.420;17.842;2023-04-24T06:47:23;2.47;;;1.40;;
14292;SDS011;62290;59.420;17.842;2023-04-24T06:49:51;3.60;;;1.45;;
14292;SDS011;62290;59.420;17.842;2023-04-24T06:52:21;4.57;;;1.40;;
14292;SDS011;62290;59.420;17.842;2023-04-24T06:54:49;4.28;;;1.83;;
14292;SDS011;62290;59.420;17.842;2023-04-24T06:57:17;9.75;;;1.95;;
14292;SDS011;62290;59.420;17.842;2023-04-24T06:59:46;11.27;;;2.45;;
14292;SDS011;62290;59.420;17.842;2023-04-24T07:02:14;10.18;;;2.05;;
14292;SDS011;62290;59.420;17.842;2023-04-24T07:04:44;7.55;;;2.28;;
14292;SDS011;62290;59.420;17.842;2023-04-24T07:07:13;13.32;;;2.28;;
14292;SDS011;62290;59.420;17.842;2023-04-24T07:09:43;11.50;;;2.03;;
14292;SDS011;62290;59.420;17.842;2023-04-24T07:12:11;3.58;;;1.50;;
14292;SDS011;62290;59.420;17.842;2023-04-24T07:14:39;6.18;;;1.55;;
14292;SDS011;62290;59.420;17.842;2023-04-24T07:17:07;9.88;;;2.00;;
14292;SDS011;62290;59.420;17.842;2023-04-24T07:19:35;3.78;;;1.80;;
14292;SDS011;62290;59.420;17.842;2023-04-24T07:22:05;8.20;;;1.73;;
14292;SDS011;62290;59.420;17.842;2023-04-24T07:24:33;14.05;;;2.70;;
14292;SDS011;62290;59.420;17.842;2023-04-24T07:27:01;7.60;;;1.40;;
14292;SDS011;62290;59.420;17.842;2023-04-24T07:29:29;5.40;;;1.95;;
14292;SDS011;62290;59.420;17.842;2023-04-24T07:31:57;13.48;;;1.90;;
14292;SDS011;62290;59.420;17.842;2023-04-24T07:34:29;3.63;;;1.45;;
14292;SDS011;62290;59.420;17.842;2023-04-24T07:36:57;5.68;;;1.55;;
14292;SDS011;62290;59.420;17.842;2023-04-24T07:39:26;5.57;;;1.70;;
14292;SDS011;62290;59.420;17.842;2023-04-24T07:41:55;8.52;;;1.45;;
14292;SDS011;62290;59.420;17.842;2023-04-24T07:44:24;2.28;;;1.17;;
14292;SDS011;62290;59.420;17.842;2023-04-24T07:46:52;8.60;;;1.50;;
14292;SDS011;62290;59.420;17.842;2023-04-24T07:49:21;2.80;;;1.10;;
14292;SDS011;62290;59.420;17.842;2023-04-24T07:51:49;4.85;;;1.10;;
14292;SDS011;62290;59.420;17.842;2023-04-24T07:54:17;4.85;;;1.42;;
14292;SDS011;62290;59.420;17.842;2023-04-24T07:56:46;2.10;;;1.40;;
14292;SDS011;62290;59.420;17.842;2023-04-24T07:59:16;4.90;;;1.25;;
14292;SDS011;62290;59.420;17.842;2023-04-24T08:01:44;2.70;;;1.30;;
14292;SDS011;62290;59.420;17.842;2023-04-24T08:04:12;2.33;;;1.17;;
14292;SDS011;62290;59.420;17.842;2023-04-24T08:06:40;4.43;;;1.30;;
14292;SDS011;62290;59.420;17.842;2023-04-24T08:09:08;2.33;;;1.17;;
14292;SDS011;62290;59.420;17.842;2023-04-24T08:11:36;2.65;;;1.15;;
14292;SDS011;62290;59.420;17.842;2023-04-24T08:14:06;8.65;;;1.30;;
14292;SDS011;62290;59.420;17.842;2023-04-24T08:16:34;2.95;;;1.25;;
14292;SDS011;62290;59.420;17.842;2023-04-24T08:19:03;3.88;;;1.10;;
14292;SDS011;62290;59.420;17.842;2023-04-24T08:21:31;4.43;;;1.20;;
14292;SDS011;62290;59.420;17.842;2023-04-24T08:23:59;3.28;;;1.35;;
14292;SDS011;62290;59.420;17.842;2023-04-24T08:26:31;1.60;;;1.00;;
14292;SDS011;62290;59.420;17.842;2023-04-24T08:28:59;3.35;;;1.20;;
14292;SDS011;62290;59.420;17.842;2023-04-24T08:31:29;7.15;;;1.05;;
14292;SDS011;62290;59.420;17.842;2023-04-24T08:33:57;4.40;;;1.30;;
14292;SDS011;62290;59.420;17.842;2023-04-24T08:36:26;2.65;;;1.30;;
14292;SDS011;62290;59.420;17.842;2023-04-24T08:39:11;2.40;;;1.10;;
14292;SDS011;62290;59.420;17.842;2023-04-24T08:41:40;2.35;;;1.02;;
14292;SDS011;62290;59.420;17.842;2023-04-24T08:44:09;1.75;;;0.90;;
14292;SDS011;62290;59.420;17.842;2023-04-24T08:46:40;1.42;;;0.75;;
14292;SDS011;62290;59.420;17.842;2023-04-24T08:49:10;1.25;;;1.02;;
14292;SDS011;62290;59.420;17.842;2023-04-24T08:51:39;3.17;;;1.10;;
14292;SDS011;62290;59.420;17.842;2023-04-24T08:54:07;3.50;;;1.05;;
14292;SDS011;62290;59.420;17.842;2023-04-24T08:56:36;2.15;;;0.80;;
14292;SDS011;62290;59.420;17.842;2023-04-24T08:59:05;3.47;;;0.80;;
14292;SDS011;62290;59.420;17.842;2023-04-24T09:01:34;1.95;;;1.15;;
14292;SDS011;62290;59.420;17.842;2023-04-24T09:04:08;1.75;;;0.90;;
14292;SDS011;62290;59.420;17.842;2023-04-24T09:06:39;2.50;;;0.85;;
14292;SDS011;62290;59.420;17.842;2023-04-24T09:09:07;1.20;;;0.98;;
14292;SDS011;62290;59.420;17.842;2023-04-24T09:11:38;1.55;;;1.00;;
14292;SDS011;62290;59.420;17.842;2023-04-24T09:14:06;1.42;;;0.90;;
14292;SDS011;62290;59.420;17.842;2023-04-24T09:16:35;1.70;;;1.02;;
14292;SDS011;62290;59.420;17.842;2023-04-24T09:19:04;1.20;;;0.90;;
14292;SDS011;62290;59.420;17.842;2023-04-24T09:21:33;1.60;;;0.93;;
14292;SDS011;62290;59.420;17.842;2023-04-24T09:24:03;0.90;;;0.80;;
14292;SDS011;62290;59.420;17.842;2023-04-24T09:26:34;2.05;;;0.75;;
14292;SDS011;62290;59.420;17.842;2023-04-24T09:29:03;3.95;;;1.10;;
14292;SDS011;62290;59.420;17.842;2023-04-24T09:31:32;1.90;;;0.80;;
14292;SDS011;62290;59.420;17.842;2023-04-24T09:34:01;2.28;;;0.70;;
14292;SDS011;62290;59.420;17.842;2023-04-24T09:36:35;1.30;;;0.90;;
14292;SDS011;62290;59.420;17.842;2023-04-24T09:39:05;4.63;;;1.00;;
14292;SDS011;62290;59.420;17.842;2023-04-24T09:41:35;1.83;;;0.80;;
14292;SDS011;62290;59.420;17.842;2023-04-24T09:44:11;0.95;;;0.47;;
14292;SDS011;62290;59.420;17.842;2023-04-24T09:46:40;1.15;;;0.80;;
14292;SDS011;62290;59.420;17.842;2023-04-24T09:49:12;1.27;;;0.70;;
14292;SDS011;62290;59.420;17.842;2023-04-24T09:51:43;1.40;;;0.90;;
14292;SDS011;62290;59.420;17.842;2023-04-24T09:54:13;1.23;;;0.68;;
14292;SDS011;62290;59.420;17.842;2023-04-24T09:56:44;2.05;;;0.75;;
14292;SDS011;62290;59.420;17.842;2023-04-24T09:59:13;0.95;;;0.60;;
14292;SDS011;62290;59.420;17.842;2023-04-24T10:01:41;2.70;;;1.25;;
14292;SDS011;62290;59.420;17.842;2023-04-24T10:04:18;1.40;;;0.90;;
14292;SDS011;62290;59.420;17.842;2023-04-24T10:06:48;0.93;;;0.80;;
14292;SDS011;62290;59.420;17.842;2023-04-24T10:09:18;2.85;;;1.17;;
14292;SDS011;62290;59.420;17.842;2023-04-24T10:11:47;1.40;;;0.80;;
14292;SDS011;62290;59.420;17.842;2023-04-24T10:14:17;1.30;;;0.80;;
14292;SDS011;62290;59.420;17.842;2023-04-24T10:16:47;2.10;;;0.88;;
14292;SDS011;62290;59.420;17.842;2023-04-24T10:19:16;2.85;;;0.90;;
14292;SDS011;62290;59.420;17.842;2023-04-24T10:21:47;2.42;;;0.85;;
14292;SDS011;62290;59.420;17.842;2023-04-24T10:24:17;1.45;;;0.98;;
14292;SDS011;62290;59.420;17.842;2023-04-24T10:26:46;3.33;;;0.95;;
14292;SDS011;62290;59.420;17.842;2023-04-24T10:29:16;1.83;;;0.88;;
14292;SDS011;62290;59.420;17.842;2023-04-24T10:31:47;2.53;;;1.55;;
14292;SDS011;62290;59.420;17.842;2023-04-24T10:34:16;1.55;;;1.13;;
14292;SDS011;62290;59.420;17.842;2023-04-24T10:36:50;3.40;;;0.70;;
14292;SDS011;62290;59.420;17.842;2023-04-24T10:39:23;1.77;;;0.82;;
14292;SDS011;62290;59.420;17.842;2023-04-24T10:41:54;5.18;;;0.90;;
14292;SDS011;62290;59.420;17.842;2023-04-24T10:44:24;1.70;;;0.80;;
14292;SDS011;62290;59.420;17.842;2023-04-24T10:46:53;1.25;;;1.00;;
14292;SDS011;62290;59.420;17.842;2023-04-24T10:49:28;1.73;;;1.00;;
14292;SDS011;62290;59.420;17.842;2023-04-24T10:52:02;1.33;;;0.80;;
14292;SDS011;62290;59.420;17.842;2023-04-24T10:54:34;1.60;;;1.00;;
14292;SDS011;62290;59.420;17.842;2023-04-24T11:02:57;0.95;;;0.85;;
14292;SDS011;62290;59.420;17.842;2023-04-24T11:08:24;2.85;;;1.00;;
14292;SDS011;62290;59.420;17.842;2023-04-24T11:10:55;2.35;;;0.98;;
14292;SDS011;62290;59.420;17.842;2023-04-24T11:14:00;1.75;;;1.00;;
14292;SDS011;62290;59.420;17.842;2023-04-24T11:16:34;1.50;;;0.88;;
14292;SDS011;62290;59.420;17.842;2023-04-24T11:19:05;1.92;;;0.90;;
14292;SDS011;62290;59.420;17.842;2023-04-24T11:21:41;1.48;;;0.88;;
14292;SDS011;62290;59.420;17.842;2023-04-24T11:24:25;1.90;;;1.08;;
14292;SDS011;62290;59.420;17.842;2023-04-24T11:26:54;1.63;;;0.90;;
14292;SDS011;62290;59.420;17.842;2023-04-24T11:29:37;3.33;;;1.00;;
14292;SDS011;62290;59.420;17.842;2023-04-24T11:32:23;0.95;;;0.85;;
14292;SDS011;62290;59.420;17.842;2023-04-24T11:34:53;2.20;;;1.10;;
14292;SDS011;62290;59.420;17.842;2023-04-24T11:37:23;0.90;;;0.80;;
14292;SDS011;62290;59.420;17.842;2023-04-24T11:39:55;1.48;;;0.80;;
14292;SDS011;62290;59.420;17.842;2023-04-24T11:42:24;1.75;;;0.65;;
14292;SDS011;62290;59.420;17.842;2023-04-24T11:44:52;2.28;;;1.00;;
14292;SDS011;62290;59.420;17.842;2023-04-24T11:47:27;1.15;;;0.80;;
14292;SDS011;62290;59.420;17.842;2023-04-24T11:49:56;6.13;;;1.08;;
14292;SDS011;62290;59.420;17.842;2023-04-24T11:52:26;3.53;;;0.90;;
14292;SDS011;62290;59.420;17.842;2023-04-24T11:54:56;1.17;;;0.90;;
14292;SDS011;62290;59.420;17.842;2023-04-24T11:57:25;1.13;;;0.70;;
14292;SDS011;62290;59.420;17.842;2023-04-24T11:59:55;2.53;;;1.10;;
14292;SDS011;62290;59.420;17.842;2023-04-24T12:02:23;3.55;;;1.13;;
14292;SDS011;62290;59.420;17.842;2023-04-24T12:04:52;1.67;;;1.05;;
14292;SDS011;62290;59.420;17.842;2023-04-24T12:07:22;2.78;;;0.90;;
14292;SDS011;62290;59.420;17.842;2023-04-24T12:09:56;3.08;;;1.27;;
14292;SDS011;62290;59.420;17.842;2023-04-24T12:12:26;2.55;;;1.00;;
14292;SDS011;62290;59.420;17.842;2023-04-24T12:14:56;2.17;;;1.00;;
14292;SDS011;62290;59.420;17.842;2023-04-24T12:17:26;1.58;;;1.00;;
14292;SDS011;62290;59.420;17.842;2023-04-24T12:19:58;3.63;;;1.00;;
14292;SDS011;62290;59.420;17.842;2023-04-24T12:22:28;1.77;;;1.10;;
14292;SDS011;62290;59.420;17.842;2023-04-24T12:25:01;1.48;;;1.02;;
14292;SDS011;62290;59.420;17.842;2023-04-24T12:27:32;2.55;;;1.00;;
14292;SDS011;62290;59.420;17.842;2023-04-24T12:30:02;1.83;;;0.90;;
14292;SDS011;62290;59.420;17.842;2023-04-24T12:32:31;1.33;;;0.80;;
14292;SDS011;62290;59.420;17.842;2023-04-24T12:35:00;3.75;;;1.20;;
14292;SDS011;62290;59.420;17.842;2023-04-24T12:37:32;3.95;;;1.50;;
14292;SDS011;62290;59.420;17.842;2023-04-24T12:40:05;12.00;;;1.65;;
14292;SDS011;62290;59.420;17.842;2023-04-24T12:42:35;1.77;;;0.98;;
14292;SDS011;62290;59.420;17.842;2023-04-24T12:45:09;2.63;;;1.20;;
14292;SDS011;62290;59.420;17.842;2023-04-24T12:47:38;3.97;;;1.17;;
14292;SDS011;62290;59.420;17.842;2023-04-24T12:50:08;1.90;;;1.23;;
14292;SDS011;62290;59.420;17.842;2023-04-24T12:52:37;4.88;;;1.30;;
14292;SDS011;62290;59.420;17.842;2023-04-24T12:55:07;5.10;;;1.20;;
14292;SDS011;62290;59.420;17.842;2023-04-24T12:57:36;6.13;;;1.70;;
14292;SDS011;62290;59.420;17.842;2023-04-24T13:00:06;5.43;;;1.35;;
14292;SDS011;62290;59.420;17.842;2023-04-24T13:02:35;6.22;;;1.60;;
14292;SDS011;62290;59.420;17.842;2023-04-24T13:05:04;4.65;;;1.48;;
14292;SDS011;62290;59.420;17.842;2023-04-24T13:07:32;3.35;;;1.40;;
14292;SDS011;62290;59.420;17.842;2023-04-24T13:10:00;2.38;;;1.55;;
14292;SDS011;62290;59.420;17.842;2023-04-24T13:12:30;5.32;;;2.00;;
14292;SDS011;62290;59.420;17.842;2023-04-24T13:14:58;4.60;;;1.42;;
14292;SDS011;62290;59.420;17.842;2023-04-24T13:17:26;2.47;;;1.20;;
14292;SDS011;62290;59.420;17.842;2023-04-24T13:19:55;3.38;;;1.38;;
14292;SDS011;62290;59.420;17.842;2023-04-24T13:22:23;2.63;;;1.33;;
14292;SDS011;62290;59.420;17.842;2023-04-24T13:24:51;4.90;;;1.20;;
14292;SDS011;62290;59.420;17.842;2023-04-24T13:27:19;1.80;;;1.25;;
14292;SDS011;62290;59.420;17.842;2023-04-24T13:29:48;6.10;;;1.33;;
14292;SDS011;62290;59.420;17.842;2023-04-24T13:32:17;2.83;;;1.27;;
14292;SDS011;62290;59.420;17.842;2023-04-24T13:34:46;2.85;;;1.23;;
14292;SDS011;62290;59.420;17.842;2023-04-24T13:37:14;4.60;;;1.48;;
14292;SDS011;62290;59.420;17.842;2023-04-24T13:39:42;4.40;;;0.95;;
14292;SDS011;62290;59.420;17.842;2023-04-24T13:42:10;2.95;;;1.30;;
14292;SDS011;62290;59.420;17.842;2023-04-24T13:44:39;3.33;;;1.00;;
14292;SDS011;62290;59.420;17.842;2023-04-24T13:47:09;3.20;;;1.30;;
14292;SDS011;62290;59.420;17.842;2023-04-24T13:49:37;2.80;;;1.63;;
14292;SDS011;62290;59.420;17.842;2023-04-24T13:52:05;3.00;;;1.50;;
14292;SDS011;62290;59.420;17.842;2023-04-24T13:54:33;3.95;;;1.20;;
14292;SDS011;62290;59.420;17.842;2023-04-24T13:57:01;2.75;;;1.38;;
14292;SDS011;62290;59.420;17.842;2023-04-24T13:59:30;3.65;;;1.50;;
14292;SDS011;62290;59.420;17.842;2023-04-24T14:01:59;3.67;;;1.80;;
14292;SDS011;62290;59.420;17.842;2023-04-24T14:04:28;4.30;;;1.50;;
14292;SDS011;62290;59.420;17.842;2023-04-24T14:06:56;3.72;;;1.33;;
14292;SDS011;62290;59.420;17.842;2023-04-24T14:09:24;4.03;;;1.65;;
14292;SDS011;62290;59.420;17.842;2023-04-24T14:11:52;3.47;;;1.50;;
14292;SDS011;62290;59.420;17.842;2023-04-24T14:14:20;2.78;;;1.85;;
14292;SDS011;62290;59.420;17.842;2023-04-24T14:16:49;2.22;;;1.50;;
14292;SDS011;62290;59.420;17.842;2023-04-24T14:19:17;3.22;;;1.50;;
14292;SDS011;62290;59.420;17.842;2023-04-24T14:21:46;1.75;;;1.30;;
14292;SDS011;62290;59.420;17.842;2023-04-24T14:24:15;2.38;;;1.67;;
14292;SDS011;62290;59.420;17.842;2023-04-24T14:26:43;3.75;;;1.40;;
14292;SDS011;62290;59.420;17.842;2023-04-24T14:29:11;3.40;;;1.58;;
14292;SDS011;62290;59.420;17.842;2023-04-24T14:31:41;3.15;;;1.52;;
14292;SDS011;62290;59.420;17.842;2023-04-24T14:34:09;2.15;;;1.40;;
14292;SDS011;62290;59.420;17.842;2023-04-24T14:36:37;4.43;;;1.40;;
14292;SDS011;62290;59.420;17.842;2023-04-24T14:39:06;2.22;;;1.40;;
14292;SDS011;62290;59.420;17.842;2023-04-24T14:41:35;2.75;;;1.40;;
14292;SDS011;62290;59.420;17.842;2023-04-24T14:44:03;4.00;;;2.00;;
14292;SDS011;62290;59.420;17.842;2023-04-24T14:46:32;4.93;;;1.55;;
14292;SDS011;62290;59.420;17.842;2023-04-24T14:49:00;2.08;;;1.60;;
14292;SDS011;62290;59.420;17.842;2023-04-24T14:51:28;3.20;;;1.70;;
14292;SDS011;62290;59.420;17.842;2023-04-24T14:53:56;1.90;;;1.73;;
14292;SDS011;62290;59.420;17.842;2023-04-24T14:56:27;5.63;;;1.88;;
14292;SDS011;62290;59.420;17.842;2023-04-24T14:58:55;2.67;;;1.75;;